ENSH/SVJ METAR and TAF weather

Enter ICAO airport designator
Station Type Date Time Source
ENSH METAR 2021/07/26 11:50 UTC NOAA

ENSH 261150Z 10004KT 9999 FEW004 SCT008 14/12 Q1019 RMK WIND 150FT 01009KT


Station Type Date Time Source
ENSH Decoded METAR 2021/07/26 11:50 UTC NOAA

Svolvaer / Helle, Norway (ENSH) 68-15N 014-40E 9M
Jul 26, 2021 - 07:50 AM EDT / 2021.07.26 1150 UTC
Wind: from the E (100 degrees) at 5 MPH (4 KT):0
Visibility: greater than 7 mile(s):0
Sky conditions: partly cloudy
Temperature: 57 F (14 C)
Dew Point: 53 F (12 C)
Relative Humidity: 87%
Pressure (altimeter): 30.09 in. Hg (1019 hPa)
ob: ENSH 261150Z 10004KT 9999 FEW004 SCT008 14/12 Q1019 RMK WIND 150FT 01009KT
cycle: 12

Station Type Date Time Source
ENSH TAF UTC NOAA

Error!

Example: see airport list